Timeline UpdatesTrip UpdatesNews PostsPvt PostsTravel TipsAdmin PostsConv PostsFollowed PostsChat RequestsBlog PostsPNR Posts

Disclaimer
Search
 
 
Thu Oct 2, 2014 03:52:06 ISTHomeTrainsΣChainsAtlasPNRForumGalleryNewsFAQTripsMembersLoginFeedback
No Recent News for this Train
Other Trains in the News **new
Latest...
.
Tue Sep 02, 2014 (11:54AM)
⇐ Return Journey: Train# 18478

18477/Kalinga Utkal Express

Time-Table HAS CHANGED.
Sep 02 (11:54AM)
Change Departure Station:
Change Arrival Station:
Post a Train Travel TipPost a Train Travel Tip **new
Post a Comment/Question/Picture/VideoPost a Comment/Question/Picture/Video
Pantry/Catering
✓ Pantry Car Avbl
✓ Catering Avbl
RSA - Rake Sharing
Rake/Coach Composition
Coach Composition:ENG-SLR-GS-GS-A1-B2-B1-S12-S11-S10-PC-S9-S8-S7-S6-S5-S4-S3-S2-S1-GS-SLR. By DJ 132 Entry# 701081
Loco
PURI-NZM: TKD WAP-7 NZM-HW: LDH WDM-3A
News    PNR    Forum    Time-Table    Availability    Fare Chart    Map    Arr/Dep History    Trips    Gallery    ΣChains    X/O    Timeline    
Travel Time: 10h 25m    16 halts    Distance: 578 km    Avg Speed: 55 km/hr
Type: Mail/Express
Zone: ECoR/East Coast
Departs @ 20:55 (Avg 25m late)
Platform# 5
SMTWTFS
Puri/PURI 
Arrives @ 07:20 +1 night (Avg 32m late)
Platform# ???
SMTWTFS
Chakradharpur/CKP 

16 halts. 96 intermediate Stations between Puri and Chakradharpur

Show ALL intermediate Stations  Show Old Time-Table

#CodeStation NameX/OArrivesAvgDepartsAvgHaltPFDay#KmSpeedElevZoneAddress
1PURIPuri (5)»  -20:55+25510.04912mECoRPuri, Odisha
2SILSakhi Gopal (3)  21:15+3021:16+311m--116.44810mECoRPuri, Odisha
3KURKhurda Road Junction (7)X  21:50+2921:55+315m--143.95725mECoRKhordha, Odisha
4BBSBhubaneswar (4)  22:20 22:15+3322:25 22:20+355m4162.84840mECoRBhubaneshwar, Odisha
5CTCCuttack Junction (5)  22:50 22:55+4222:55 23:00+435m1190.78628mECoRCuttack, Odisha
6JJKRJajpur Keonjhar Road (4)  23:51 23:50+4823:52+481 2m--1162.74036mECoRJajpur, Odisha
7BHCBhadrak (4)X  00:58+2801:00+312m--2206.48723mECoRBhadrak, Odisha
8SOROSoroX  01:21 01:20+3501:22+361 2m--2235.47214mSERSoro, Odisha
9BLSBalasore (4)X  01:50+3601:55+365m--2268.87319mSERBalasore, Odisha
10BTSBasta (3)X  02:19 02:18+3802:20+391 2m--2296.87316mSERBasta, Odisha
11JERJaleswar (4)X  02:37 02:36+3002:38+311 2m--2316.38413mSERJaleswar, Odisha
12HIJHijli (2)  03:25 03:24+3603:26+401 2m--2381.05048mSERdist - paschim medinipur, West Bengal
13CKUChakulia (4)  04:47+2104:48+241m--2448.883126mSERChakulia, Jharkhand
14GTSGhatsila (3)X  05:11 05:10+1405:12+171 2m--2479.445103mSEREast Singhbhum, Jharkhand
15TATATatanagar Junction (5)  06:05 06:00+2806:10+315 10m32515.660164mSER91-657-2423026, Jharkhand
16SINISini Junction (3)X  06:37+3406:38 06:39+351 2m--2542.554182mSERNational Highway 33, Jharkhand
17RKSNRajkharsawan Junction (3)  06:54 06:56+3606:55 06:57+381m--2557.852189mSERSaraikela Kharswan District, Jharkhand
18CKPChakradharpur (3)•X  07:20+3207:30+3210m--2577.884235mSERChakradharpur (West Singhbhum), Jharkhand
19GOLGoilkera (2)  07:54+3807:55+401m--2611.655333mSERGoilkera, Jharkhand
20MOUManoharpur  08:25+3808:26+391m--2639.170228mSERManoharpur, Jharkhand
21BZRBisra  08:50 08:48+4108:51 08:49+421m--2664.851224mSERSundargarh, Odisha
22BNDMBondamunda (2)  08:55 08:58+2908:56 08:59+291m--2672.424213mSERRourkela, Odisha
23ROURourkela Junction (5)X  09:15+3809:30+3815m12678.966198mSERRourkela, Odisha
24GPRaj Gangpur (3)  09:57+4309:58+441m12708.774237mSERRaj Ganpur, Odisha
25BMBBamra (3)X  10:26+4910:27+501m--2743.335259mSERBamra PH : 06642-229268, Odisha
26JSGJharsuguda Junction (5)X  11:30+3011:40+3310m--2779.864236mSERJharsuguda, Odisha
27BRJNBrajrajnagarX  11:49 11:51+3811:50 11:53+391 2m--2791.567212mSECRBrajrajnagar, Odisha
28BPHBelpaharX  11:59 12:01+3912:00 12:03+411 2m--2800.483 SECRBelpahar, Odisha
29RIGRaigarh (3)X  12:36 12:40+4612:41 12:45+455m22851.578220mSECRRaigarh, Chhattisgarh
30KHSKharsia  13:04 13:11+5313:05 13:13+541 2m--2885.471 SECRNational Highway 200, Chhattisgarh
31SKTSakti (4)  13:18 13:26+5513:19 13:28+561 2m--2900.874237mSECRJanjgir-Champa, Chhattisgarh
32BUABaradwar  13:31 13:40+5813:32 13:42+591 2m--2915.752 SECRJanjgir-Champa, Chhattisgarh
33CPHChampa Junction (3)  13:49 14:00+1:0013:54 14:05+595m22931.259264mSECRNational Highway 200 (07819-245767), Chhattisgarh
34NIANaila  14:04 14:16+5814:05 14:18+1:001 2m--2942.175273mSECRJanjgir, Chhattisgarh
35AKTAkaltara (4)  14:18 14:30+5914:19 14:32+591 2m--2957.028284mSECRDist. Janjgir Champa, Chhattisgarh
36BSPBilaspur Junction (8)  15:10 15:30+3415:25 15:45+4115m22984.280271mSECRBilaspur, Chhattisgarh
37KGBKargi Road  15:57 16:09+5515:58 16:11+561 2m--21016.356327mSECRBilaspur, Chhattisgarh
38BIGBelgahna  16:18 16:28+5716:19 16:30+591 2m--21032.146327mSECRBilaspur, Chhattisgarh
39PNDPendra Road  17:25 17:40+1:0117:30 17:45+1:015m921085.861620mSECRBilaspur district, Chhattisgarh
40APRAnuppur Junction (4)X  18:20 18:35+1:0618:25 18:40+1:055m--21136.985487mSECRAnuppur, Madhya Pradesh
41AALAmlaiX  18:35 18:49+1:0918:36 18:51+1:111 2m--21149.658495mSECRAnuppur, Madhya Pradesh
42BUHBurhar  18:46 19:00+1:1018:47 19:02+1:111 2m--21158.335494mSECRBurhar, Madhya Pradesh
43SDLShahdolX  19:25 19:35+5619:30 19:40+565m--21177.866466mSECR, Madhya Pradesh
44BRSBirsinghpur  20:05 20:14+5920:06 20:16+591 2m--21215.254461mSECRPali, Madhya Pradesh
45NRZBNowrozabadX  20:15 20:24+5920:16 20:26+591 2m--21222.452458mSECRNational Highway 78, Madhya Pradesh
46UMRUmaria (3)  20:45 20:52+5420:50 20:57+535m221245.154469mSECRUmaria, Madhya Pradesh
47CHDChandia Road (1)X  21:09 21:18+5021:10 21:20+501 2m121264.125406mSECRNational Highway 78, Madhya Pradesh
48KMZKatni Murwara  22:55+2723:10+3615m--21303.970385mWCRMP 483504 ?, Madhya Pradesh
49DMODamoh (2)X  00:43+3500:45+372m--31413.075365mWCRDamoh, Madhya Pradesh
50PHAPatharia  01:05 01:06+3901:07 01:08+392m--31439.162382mWCRState Highway 14, Madhya Pradesh
51SGOSaugor (2)X  01:57+4402:00+453m--31490.155519mWCRMP 470001Madhya pradesh, Madhya Pradesh
52KYEKhurai (5)XO  02:58+3503:00+362m--31542.923439mWCRKhurai, Madhya Pradesh
53MAKRMalkheri Junction (2)  04:05 03:45+1904:07 03:47+202m--31560.156421mWCRGuna, Madhya Pradesh
54LARLalitpur (3)X  05:09 04:55+2305:10 04:57+301 2m331623.3114373mNCRLalitpur, Uttar Pradesh
55TBTTalbahat (4)X  05:31 05:18+2905:33 05:20+302m331663.265314mNCRKhaniyadhana Station Rd, Madhya Pradesh
56BABBabina (3)X  05:54 05:43+3505:55 05:45+361 2m131688.134285mNCRBabina, Uttar Pradesh
57JHSJhansi Junction (7)  06:35 06:30+2506:43 06:40+328 10m431713.675259mNCRJhansi, Uttar Pradesh
58DAADatia (2)  07:06 07:00+3507:07 07:02+391 2m--31738.676264mNCRDatia, Madhya Pradesh
59DBADabra (3)  07:29 07:26+4507:30 07:28+501 2m131769.079 NCRDabra(District-Gwalior), Madhya Pradesh
60GWLGwalior Junction (4)  08:35 08:00+5408:40 08:05+555m231811.334214mNCRGwalior, Madhya Pradesh
61MRAMorena (3)  09:08 09:13+4309:09 09:15+451 2m231849.881176mNCRMorena, Madhya Pradesh
62DHODholpur Junction (3)X  09:33 09:35+4709:34 09:37+491 2m131876.746177mNCRDholpur, Rajasthan
63AGCAgra Cantt. (6)X  10:45+3210:53+378m331929.317174mNCRAgra, Uttar Pradesh
64RKMRaja Ki Mandi (4)  11:03 11:07+3711:04 11:09+381 2m131933.369170mNCRAgra, Uttar Pradesh
65MTJMathura Junction (10)X  11:47 11:52+4011:52 11:57+405m231983.064179mNCRMathura, Uttar Pradesh
66FDBFaridabad (4)X  13:30 13:43+3313:31 13:45+361 2m232096.123206mNRold Faridabad, Haryana
67NZMDelhi Hazrat Nizamuddin (7)XOO14:05 14:40+3514:35 15:10+3430m132116.937209mNRNew Delhi 110013, Delhi NCT
68GZBGhaziabad Junction (6)  15:11 15:48+4515:13 15:50+472m132140.445217mNRGhaziabad, Uttar Pradesh
69MTCMeerut City Junction (6)X  15:55 16:53+4316:00 16:56+445 3m132187.637229mNRMeerut, Uttar Pradesh
70MUTMeerut Cantt. (2) new halt!!  17:03+5017:05+522m--32191.972230mNRMeerut, Uttar Pradesh
71MOZMuzaffarnagar (3)  16:52 17:48+4616:53 17:50+471 2m132243.245247mNRMuzaffarNagar, Uttar Pradesh
72DBDDeoband (2)  18:11 18:22+1818:12 18:24+191 2m132267.252258mNRSaharanpur, Uttar Pradesh
73TPZTapri Junction (2)  19:01 18:56+1519:02 18:58+171 2m232294.960274mNRTapri -Saharanpur, Uttar Pradesh
74RKRoorkee (3)X  19:37 19:30+3119:38 19:35+311 5m332326.934264mNRRoorkee - 247667, Uttarakhand
75HWHaridwar Junction (9)  20:30 20:55+13-232371.6-294mNRHaridwar, Uttarakhand
Scroll to Top
Scroll to Bottom